sensor_id;sensor_type;location;lat;lon;timestamp;pressure;altitude;pressure_sealevel;temperature;humidity
5703;BME280;2876;51.738;10.050;2023-08-08T00:03:01;99028.81;;;12.57;95.98
5703;BME280;2876;51.738;10.050;2023-08-08T00:09:03;99012.50;;;12.77;95.11
5703;BME280;2876;51.738;10.050;2023-08-08T00:15:06;99015.16;;;12.58;95.84
5703;BME280;2876;51.738;10.050;2023-08-08T00:21:08;99010.13;;;12.62;96.85
5703;BME280;2876;51.738;10.050;2023-08-08T00:27:10;99011.09;;;12.49;96.77
5703;BME280;2876;51.738;10.050;2023-08-08T00:33:12;99012.00;;;12.61;96.93
5703;BME280;2876;51.738;10.050;2023-08-08T00:39:14;99003.84;;;12.50;96.93
5703;BME280;2876;51.738;10.050;2023-08-08T00:45:16;98989.84;;;12.41;98.02
5703;BME280;2876;51.738;10.050;2023-08-08T00:51:18;98982.84;;;12.40;98.13
5703;BME280;2876;51.738;10.050;2023-08-08T00:57:21;98982.63;;;12.35;98.24
5703;BME280;2876;51.738;10.050;2023-08-08T01:03:23;98971.16;;;12.21;99.00
5703;BME280;2876;51.738;10.050;2023-08-08T01:09:51;98971.28;;;12.33;98.91
5703;BME280;2876;51.738;10.050;2023-08-08T01:15:56;98965.69;;;12.34;99.08
5703;BME280;2876;51.738;10.050;2023-08-08T01:22:04;98962.50;;;12.19;100.00
5703;BME280;2876;51.738;10.050;2023-08-08T01:28:07;98949.56;;;12.34;99.94
5703;BME280;2876;51.738;10.050;2023-08-08T01:34:09;98942.31;;;12.35;99.95
5703;BME280;2876;51.738;10.050;2023-08-08T01:40:13;98953.56;;;12.25;100.00
5703;BME280;2876;51.738;10.050;2023-08-08T01:46:17;98958.81;;;12.38;100.00
5703;BME280;2876;51.738;10.050;2023-08-08T01:52:19;98959.34;;;12.29;100.00
5703;BME280;2876;51.738;10.050;2023-08-08T01:58:21;98950.91;;;12.43;100.00
5703;BME280;2876;51.738;10.050;2023-08-08T02:04:23;98943.47;;;12.46;100.00
5703;BME280;2876;51.738;10.050;2023-08-08T02:10:25;98940.66;;;12.77;99.96
5703;BME280;2876;51.738;10.050;2023-08-08T02:16:27;98940.81;;;12.82;99.37
5703;BME280;2876;51.738;10.050;2023-08-08T02:22:29;98937.16;;;12.77;99.60
5703;BME280;2876;51.738;10.050;2023-08-08T02:28:31;98926.69;;;12.87;98.90
5703;BME280;2876;51.738;10.050;2023-08-08T02:34:33;98922.72;;;12.89;99.01
5703;BME280;2876;51.738;10.050;2023-08-08T02:40:35;98918.38;;;12.88;99.02
5703;BME280;2876;51.738;10.050;2023-08-08T02:46:37;98932.81;;;12.94;98.88
5703;BME280;2876;51.738;10.050;2023-08-08T02:52:39;98915.63;;;12.95;99.53
5703;BME280;2876;51.738;10.050;2023-08-08T02:58:41;98909.19;;;12.96;99.94
5703;BME280;2876;51.738;10.050;2023-08-08T03:04:43;98912.44;;;13.16;99.00
5703;BME280;2876;51.738;10.050;2023-08-08T03:10:45;98910.09;;;13.08;98.47
5703;BME280;2876;51.738;10.050;2023-08-08T03:16:47;98899.59;;;13.18;98.06
5703;BME280;2876;51.738;10.050;2023-08-08T03:22:49;98897.44;;;13.27;97.58
5703;BME280;2876;51.738;10.050;2023-08-08T03:28:51;98889.25;;;13.34;96.47
5703;BME280;2876;51.738;10.050;2023-08-08T03:34:55;98880.59;;;13.32;97.23
5703;BME280;2876;51.738;10.050;2023-08-08T03:40:57;98880.09;;;13.23;97.93
5703;BME280;2876;51.738;10.050;2023-08-08T03:46:59;98878.84;;;13.37;96.74
5703;BME280;2876;51.738;10.050;2023-08-08T03:53:19;98889.38;;;13.39;96.82
5703;BME280;2876;51.738;10.050;2023-08-08T03:59:21;98886.19;;;13.30;96.69
5703;BME280;2876;51.738;10.050;2023-08-08T04:05:23;98899.13;;;13.21;97.53
5703;BME280;2876;51.738;10.050;2023-08-08T04:11:25;98898.13;;;13.23;98.01
5703;BME280;2876;51.738;10.050;2023-08-08T04:17:27;98900.94;;;13.28;97.94
5703;BME280;2876;51.738;10.050;2023-08-08T04:23:29;98902.00;;;13.27;97.34
5703;BME280;2876;51.738;10.050;2023-08-08T04:29:31;98905.16;;;13.24;97.50
5703;BME280;2876;51.738;10.050;2023-08-08T04:35:33;98891.38;;;13.32;97.83
5703;BME280;2876;51.738;10.050;2023-08-08T04:41:35;98898.66;;;13.43;97.67
5703;BME280;2876;51.738;10.050;2023-08-08T04:47:37;98884.16;;;13.86;95.22
5703;BME280;2876;51.738;10.050;2023-08-08T04:53:39;98876.84;;;13.63;96.23
5703;BME280;2876;51.738;10.050;2023-08-08T04:59:41;98874.06;;;13.93;94.43
5703;BME280;2876;51.738;10.050;2023-08-08T05:05:44;98879.78;;;13.85;94.67
5703;BME280;2876;51.738;10.050;2023-08-08T05:11:46;98883.53;;;13.72;95.08
5703;BME280;2876;51.738;10.050;2023-08-08T05:17:48;98885.38;;;13.60;96.79
5703;BME280;2876;51.738;10.050;2023-08-08T05:23:50;98876.59;;;13.64;96.38
5703;BME280;2876;51.738;10.050;2023-08-08T05:29:52;98859.13;;;13.55;96.82
5703;BME280;2876;51.738;10.050;2023-08-08T05:35:54;98857.53;;;13.36;98.36
5703;BME280;2876;51.738;10.050;2023-08-08T05:41:56;98851.91;;;13.37;98.40
5703;BME280;2876;51.738;10.050;2023-08-08T05:47:59;98854.09;;;13.59;98.29
5703;BME280;2876;51.738;10.050;2023-08-08T05:54:02;98853.31;;;13.82;96.82
5703;BME280;2876;51.738;10.050;2023-08-08T06:00:05;98866.56;;;14.07;95.95
5703;BME280;2876;51.738;10.050;2023-08-08T06:06:10;98875.47;;;13.84;97.36
5703;BME280;2876;51.738;10.050;2023-08-08T06:12:12;98879.25;;;14.06;96.47
5703;BME280;2876;51.738;10.050;2023-08-08T06:18:14;98872.47;;;14.27;95.46
5703;BME280;2876;51.738;10.050;2023-08-08T06:24:17;98853.47;;;14.22;94.70
5703;BME280;2876;51.738;10.050;2023-08-08T06:30:19;98855.78;;;14.30;95.55
5703;BME280;2876;51.738;10.050;2023-08-08T06:36:21;98847.13;;;14.40;94.32
5703;BME280;2876;51.738;10.050;2023-08-08T06:42:23;98854.50;;;14.68;93.74
5703;BME280;2876;51.738;10.050;2023-08-08T06:48:25;98854.22;;;14.81;93.22
5703;BME280;2876;51.738;10.050;2023-08-08T06:54:27;98853.38;;;14.92;91.88
5703;BME280;2876;51.738;10.050;2023-08-08T07:00:32;98857.56;;;15.00;91.79
5703;BME280;2876;51.738;10.050;2023-08-08T07:06:34;98869.38;;;15.11;91.58
5703;BME280;2876;51.738;10.050;2023-08-08T07:12:38;98865.59;;;15.23;91.49
5703;BME280;2876;51.738;10.050;2023-08-08T07:18:40;98872.81;;;15.35;90.30
5703;BME280;2876;51.738;10.050;2023-08-08T07:24:42;98864.22;;;15.38;90.42
5703;BME280;2876;51.738;10.050;2023-08-08T07:30:44;98864.66;;;15.75;90.27
5703;BME280;2876;51.738;10.050;2023-08-08T07:36:47;98857.25;;;16.21;86.42
5703;BME280;2876;51.738;10.050;2023-08-08T07:42:49;98849.88;;;16.16;85.78
5703;BME280;2876;51.738;10.050;2023-08-08T07:48:51;98842.34;;;16.02;86.45
5703;BME280;2876;51.738;10.050;2023-08-08T07:54:53;98851.97;;;16.09;86.02
5703;BME280;2876;51.738;10.050;2023-08-08T08:00:55;98836.28;;;16.11;85.49
5703;BME280;2876;51.738;10.050;2023-08-08T08:06:57;98832.19;;;16.09;85.02
5703;BME280;2876;51.738;10.050;2023-08-08T08:12:59;98842.41;;;16.40;84.14
5703;BME280;2876;51.738;10.050;2023-08-08T08:19:01;98828.56;;;16.59;82.60
5703;BME280;2876;51.738;10.050;2023-08-08T08:25:05;98829.47;;;16.86;82.22
5703;BME280;2876;51.738;10.050;2023-08-08T08:31:09;98824.72;;;16.98;81.26
5703;BME280;2876;51.738;10.050;2023-08-08T08:37:11;98817.94;;;16.96;80.55
5703;BME280;2876;51.738;10.050;2023-08-08T08:43:13;98824.59;;;17.10;78.66
5703;BME280;2876;51.738;10.050;2023-08-08T08:49:16;98807.22;;;17.33;79.35
5703;BME280;2876;51.738;10.050;2023-08-08T08:55:22;98821.06;;;17.37;79.19
5703;BME280;2876;51.738;10.050;2023-08-08T09:01:24;98816.88;;;17.51;78.39
5703;BME280;2876;51.738;10.050;2023-08-08T09:07:26;98818.84;;;17.61;75.30
5703;BME280;2876;51.738;10.050;2023-08-08T09:13:39;98814.94;;;17.46;76.62
5703;BME280;2876;51.738;10.050;2023-08-08T09:19:45;98822.41;;;17.34;76.71
5703;BME280;2876;51.738;10.050;2023-08-08T09:25:48;98816.28;;;17.17;77.73
5703;BME280;2876;51.738;10.050;2023-08-08T09:31:50;98819.13;;;17.05;78.68
5703;BME280;2876;51.738;10.050;2023-08-08T09:37:56;98799.47;;;17.47;76.97
5703;BME280;2876;51.738;10.050;2023-08-08T09:43:59;98799.59;;;17.30;78.28
5703;BME280;2876;51.738;10.050;2023-08-08T09:50:03;98791.50;;;17.62;77.66
5703;BME280;2876;51.738;10.050;2023-08-08T09:56:08;98796.72;;;18.06;74.54
5703;BME280;2876;51.738;10.050;2023-08-08T10:02:14;98790.69;;;18.46;72.59
5703;BME280;2876;51.738;10.050;2023-08-08T10:08:17;98780.72;;;18.62;70.44
5703;BME280;2876;51.738;10.050;2023-08-08T10:14:20;98783.00;;;17.86;73.82
5703;BME280;2876;51.738;10.050;2023-08-08T10:20:23;98775.28;;;18.05;72.71
5703;BME280;2876;51.738;10.050;2023-08-08T10:26:26;98795.78;;;18.85;71.49
5703;BME280;2876;51.738;10.050;2023-08-08T10:32:42;98775.25;;;19.35;69.17
5703;BME280;2876;51.738;10.050;2023-08-08T10:38:49;98776.28;;;19.04;69.50
5703;BME280;2876;51.738;10.050;2023-08-08T10:44:56;98788.31;;;18.08;70.31
5703;BME280;2876;51.738;10.050;2023-08-08T10:51:00;98808.84;;;17.66;75.74
5703;BME280;2876;51.738;10.050;2023-08-08T10:57:02;98822.16;;;16.87;81.22
5703;BME280;2876;51.738;10.050;2023-08-08T11:03:05;98829.75;;;16.46;84.49
5703;BME280;2876;51.738;10.050;2023-08-08T11:09:07;98840.53;;;16.24;89.16
5703;BME280;2876;51.738;10.050;2023-08-08T11:15:09;98849.13;;;15.54;97.17
5703;BME280;2876;51.738;10.050;2023-08-08T11:21:12;98840.47;;;15.68;99.69
5703;BME280;2876;51.738;10.050;2023-08-08T11:27:19;98831.66;;;16.29;95.63
5703;BME280;2876;51.738;10.050;2023-08-08T11:33:25;98825.72;;;18.00;93.37
5703;BME280;2876;51.738;10.050;2023-08-08T11:39:28;98810.97;;;20.80;80.10
5703;BME280;2876;51.738;10.050;2023-08-08T11:45:32;98822.13;;;22.65;70.35
5703;BME280;2876;51.738;10.050;2023-08-08T11:51:34;98816.66;;;22.65;65.52
5703;BME280;2876;51.738;10.050;2023-08-08T11:57:38;98827.78;;;22.97;63.97
5703;BME280;2876;51.738;10.050;2023-08-08T12:03:40;98823.72;;;21.84;64.82
5703;BME280;2876;51.738;10.050;2023-08-08T12:09:42;98818.22;;;21.89;62.70
5703;BME280;2876;51.738;10.050;2023-08-08T12:15:44;98812.00;;;21.83;59.35
5703;BME280;2876;51.738;10.050;2023-08-08T12:21:51;98821.72;;;21.60;59.33
5703;BME280;2876;51.738;10.050;2023-08-08T12:27:53;98814.69;;;21.88;56.73
5703;BME280;2876;51.738;10.050;2023-08-08T12:33:55;98794.16;;;21.62;59.74
5703;BME280;2876;51.738;10.050;2023-08-08T12:39:57;98799.66;;;22.49;57.19
5703;BME280;2876;51.738;10.050;2023-08-08T12:46:00;98796.66;;;22.69;57.77
5703;BME280;2876;51.738;10.050;2023-08-08T12:52:02;98790.19;;;22.60;56.95
5703;BME280;2876;51.738;10.050;2023-08-08T12:58:04;98791.88;;;22.80;53.41
5703;BME280;2876;51.738;10.050;2023-08-08T13:04:06;98800.75;;;23.71;49.86
5703;BME280;2876;51.738;10.050;2023-08-08T13:10:11;98782.75;;;23.46;49.80
5703;BME280;2876;51.738;10.050;2023-08-08T13:16:13;98783.94;;;24.66;46.75
5703;BME280;2876;51.738;10.050;2023-08-08T13:22:15;98796.41;;;23.84;48.53
5703;BME280;2876;51.738;10.050;2023-08-08T13:28:17;98782.84;;;23.03;50.04
5703;BME280;2876;51.738;10.050;2023-08-08T13:34:19;98796.16;;;23.29;49.31
5703;BME280;2876;51.738;10.050;2023-08-08T13:40:21;98783.78;;;22.70;49.31
5703;BME280;2876;51.738;10.050;2023-08-08T13:46:23;98782.44;;;22.48;51.70
5703;BME280;2876;51.738;10.050;2023-08-08T13:52:25;98789.13;;;23.04;50.68
5703;BME280;2876;51.738;10.050;2023-08-08T13:58:27;98779.50;;;23.07;50.75
5703;BME280;2876;51.738;10.050;2023-08-08T14:04:29;98795.75;;;22.98;49.37
5703;BME280;2876;51.738;10.050;2023-08-08T14:10:31;98792.44;;;23.58;48.39
5703;BME280;2876;51.738;10.050;2023-08-08T14:16:33;98788.06;;;23.57;49.56
5703;BME280;2876;51.738;10.050;2023-08-08T14:22:35;98784.19;;;23.44;50.22
5703;BME280;2876;51.738;10.050;2023-08-08T14:28:37;98804.34;;;23.29;52.21
5703;BME280;2876;51.738;10.050;2023-08-08T14:34:39;98797.00;;;22.15;56.20
5703;BME280;2876;51.738;10.050;2023-08-08T14:40:41;98802.19;;;21.43;57.25
5703;BME280;2876;51.738;10.050;2023-08-08T14:46:44;98790.63;;;21.17;58.36
5703;BME280;2876;51.738;10.050;2023-08-08T14:52:46;98789.25;;;22.70;53.01
5703;BME280;2876;51.738;10.050;2023-08-08T14:58:48;98811.75;;;23.85;48.12
5703;BME280;2876;51.738;10.050;2023-08-08T15:04:49;98813.69;;;23.28;47.80
5703;BME280;2876;51.738;10.050;2023-08-08T15:10:53;98808.66;;;22.20;52.61
5703;BME280;2876;51.738;10.050;2023-08-08T15:16:56;98808.72;;;23.11;50.64
5703;BME280;2876;51.738;10.050;2023-08-08T15:22:59;98832.19;;;24.39;47.50
5703;BME280;2876;51.738;10.050;2023-08-08T15:29:01;98831.50;;;23.63;49.64
5703;BME280;2876;51.738;10.050;2023-08-08T15:35:04;98825.16;;;23.30;49.74
5703;BME280;2876;51.738;10.050;2023-08-08T15:41:07;98826.22;;;22.14;51.89
5703;BME280;2876;51.738;10.050;2023-08-08T15:47:09;98821.28;;;22.16;50.03
5703;BME280;2876;51.738;10.050;2023-08-08T15:53:11;98825.81;;;21.97;52.01
5703;BME280;2876;51.738;10.050;2023-08-08T15:59:13;98828.44;;;22.07;53.35
5703;BME280;2876;51.738;10.050;2023-08-08T16:05:15;98838.03;;;23.48;50.38
5703;BME280;2876;51.738;10.050;2023-08-08T16:11:18;98826.25;;;23.86;49.61
5703;BME280;2876;51.738;10.050;2023-08-08T16:17:19;98830.00;;;24.22;49.20
5703;BME280;2876;51.738;10.050;2023-08-08T16:23:21;98818.69;;;24.43;47.92
5703;BME280;2876;51.738;10.050;2023-08-08T16:29:23;98828.00;;;23.01;52.89
5703;BME280;2876;51.738;10.050;2023-08-08T16:35:25;98828.44;;;22.89;52.80
5703;BME280;2876;51.738;10.050;2023-08-08T16:41:27;98835.22;;;22.68;53.00
5703;BME280;2876;51.738;10.050;2023-08-08T16:47:29;98816.09;;;22.92;52.89
5703;BME280;2876;51.738;10.050;2023-08-08T16:53:31;98826.97;;;22.97;52.42
5703;BME280;2876;51.738;10.050;2023-08-08T16:59:33;98829.94;;;22.76;53.35
5703;BME280;2876;51.738;10.050;2023-08-08T17:05:35;98834.91;;;22.21;55.40
5703;BME280;2876;51.738;10.050;2023-08-08T17:11:37;98826.91;;;20.37;61.30
5703;BME280;2876;51.738;10.050;2023-08-08T17:17:40;98834.84;;;19.93;62.93
5703;BME280;2876;51.738;10.050;2023-08-08T17:23:42;98826.69;;;21.09;58.78
5703;BME280;2876;51.738;10.050;2023-08-08T17:29:44;98835.66;;;21.09;58.81
5703;BME280;2876;51.738;10.050;2023-08-08T17:35:46;98848.81;;;21.51;57.32
5703;BME280;2876;51.738;10.050;2023-08-08T17:41:48;98835.53;;;20.75;58.98
5703;BME280;2876;51.738;10.050;2023-08-08T17:47:50;98842.22;;;20.13;61.66
5703;BME280;2876;51.738;10.050;2023-08-08T17:53:52;98834.50;;;19.28;65.77
5703;BME280;2876;51.738;10.050;2023-08-08T17:59:54;98830.22;;;18.69;66.19
5703;BME280;2876;51.738;10.050;2023-08-08T18:05:56;98826.47;;;18.33;68.24
5703;BME280;2876;51.738;10.050;2023-08-08T18:11:58;98843.19;;;18.15;69.95
5703;BME280;2876;51.738;10.050;2023-08-08T18:18:02;98840.16;;;18.11;69.76
5703;BME280;2876;51.738;10.050;2023-08-08T18:24:07;98848.53;;;17.99;70.77
5703;BME280;2876;51.738;10.050;2023-08-08T18:30:09;98845.47;;;17.91;70.81
5703;BME280;2876;51.738;10.050;2023-08-08T18:36:12;98837.31;;;17.91;70.63
5703;BME280;2876;51.738;10.050;2023-08-08T18:42:14;98836.97;;;17.82;70.66
5703;BME280;2876;51.738;10.050;2023-08-08T18:48:16;98841.72;;;17.70;72.48
5703;BME280;2876;51.738;10.050;2023-08-08T18:54:18;98850.91;;;17.64;71.50
5703;BME280;2876;51.738;10.050;2023-08-08T19:00:20;98847.38;;;17.63;71.07
5703;BME280;2876;51.738;10.050;2023-08-08T19:06:23;98854.56;;;17.53;71.85
5703;BME280;2876;51.738;10.050;2023-08-08T19:12:25;98868.31;;;17.41;72.94
5703;BME280;2876;51.738;10.050;2023-08-08T19:18:27;98868.88;;;17.21;74.01
5703;BME280;2876;51.738;10.050;2023-08-08T19:24:29;98874.31;;;17.21;74.83
5703;BME280;2876;51.738;10.050;2023-08-08T19:30:31;98881.56;;;16.93;76.11
5703;BME280;2876;51.738;10.050;2023-08-08T19:36:33;98879.69;;;16.94;76.81
5703;BME280;2876;51.738;10.050;2023-08-08T19:42:36;98887.44;;;16.85;77.21
5703;BME280;2876;51.738;10.050;2023-08-08T19:48:38;98890.31;;;16.79;77.93
5703;BME280;2876;51.738;10.050;2023-08-08T19:54:40;98888.00;;;16.70;78.39
5703;BME280;2876;51.738;10.050;2023-08-08T20:00:42;98877.13;;;16.65;79.13
5703;BME280;2876;51.738;10.050;2023-08-08T20:06:44;98883.28;;;16.61;79.24
5703;BME280;2876;51.738;10.050;2023-08-08T20:12:46;98870.34;;;16.46;79.91
5703;BME280;2876;51.738;10.050;2023-08-08T20:18:48;98870.28;;;16.41;80.82
5703;BME280;2876;51.738;10.050;2023-08-08T20:24:51;98871.03;;;16.36;81.30
5703;BME280;2876;51.738;10.050;2023-08-08T20:30:53;98870.88;;;16.26;82.83
5703;BME280;2876;51.738;10.050;2023-08-08T20:36:56;98870.03;;;16.26;83.44
5703;BME280;2876;51.738;10.050;2023-08-08T20:43:00;98874.91;;;16.23;84.22
5703;BME280;2876;51.738;10.050;2023-08-08T20:49:02;98874.56;;;16.37;84.02
5703;BME280;2876;51.738;10.050;2023-08-08T20:55:05;98864.41;;;16.27;83.12
5703;BME280;2876;51.738;10.050;2023-08-08T21:01:07;98877.03;;;16.05;84.79
5703;BME280;2876;51.738;10.050;2023-08-08T21:07:09;98871.88;;;15.86;85.87
5703;BME280;2876;51.738;10.050;2023-08-08T21:13:16;98856.00;;;15.90;85.97
5703;BME280;2876;51.738;10.050;2023-08-08T21:19:18;98860.91;;;15.76;86.99
5703;BME280;2876;51.738;10.050;2023-08-08T21:25:20;98872.34;;;15.83;87.28
5703;BME280;2876;51.738;10.050;2023-08-08T21:31:22;98871.03;;;16.03;85.38
5703;BME280;2876;51.738;10.050;2023-08-08T21:37:24;98876.13;;;16.16;84.08
5703;BME280;2876;51.738;10.050;2023-08-08T21:43:26;98878.50;;;16.12;83.95
5703;BME280;2876;51.738;10.050;2023-08-08T21:49:28;98869.50;;;16.07;83.60
5703;BME280;2876;51.738;10.050;2023-08-08T21:55:30;98874.47;;;15.98;84.03
5703;BME280;2876;51.738;10.050;2023-08-08T22:01:32;98878.53;;;15.95;83.42
5703;BME280;2876;51.738;10.050;2023-08-08T22:07:35;98872.53;;;15.93;83.56
5703;BME280;2876;51.738;10.050;2023-08-08T22:13:37;98876.31;;;16.09;83.65
5703;BME280;2876;51.738;10.050;2023-08-08T22:19:39;98880.81;;;16.04;84.14
5703;BME280;2876;51.738;10.050;2023-08-08T22:25:41;98870.78;;;16.21;83.57
5703;BME280;2876;51.738;10.050;2023-08-08T22:31:43;98874.09;;;16.06;84.38
5703;BME280;2876;51.738;10.050;2023-08-08T22:37:45;98882.34;;;16.16;84.55
5703;BME280;2876;51.738;10.050;2023-08-08T22:43:47;98873.19;;;16.01;84.64
5703;BME280;2876;51.738;10.050;2023-08-08T22:49:49;98881.31;;;16.01;85.66
5703;BME280;2876;51.738;10.050;2023-08-08T22:55:51;98874.59;;;15.86;87.21
5703;BME280;2876;51.738;10.050;2023-08-08T23:01:53;98873.19;;;15.67;89.76
5703;BME280;2876;51.738;10.050;2023-08-08T23:07:55;98876.25;;;15.59;89.91
5703;BME280;2876;51.738;10.050;2023-08-08T23:13:57;98863.41;;;15.37;92.30
5703;BME280;2876;51.738;10.050;2023-08-08T23:19:59;98860.16;;;15.35;92.10
5703;BME280;2876;51.738;10.050;2023-08-08T23:26:01;98863.22;;;15.27;94.74
5703;BME280;2876;51.738;10.050;2023-08-08T23:32:03;98862.06;;;15.23;94.97
5703;BME280;2876;51.738;10.050;2023-08-08T23:38:05;98860.38;;;15.05;96.99
5703;BME280;2876;51.738;10.050;2023-08-08T23:44:07;98847.34;;;15.02;96.63
5703;BME280;2876;51.738;10.050;2023-08-08T23:50:10;98847.53;;;14.84;98.89
5703;BME280;2876;51.738;10.050;2023-08-08T23:56:12;98849.66;;;14.82;99.96
